sensor_id;sensor_type;location;lat;lon;timestamp;pressure;altitude;pressure_sealevel;temperature;humidity
81931;BME280;71395;43.488;1.472;2023-07-28T00:00:24;99625.97;;;27.37;49.01
81931;BME280;71395;43.488;1.472;2023-07-28T00:02:49;99645.66;;;27.42;49.52
81931;BME280;71395;43.488;1.472;2023-07-28T00:05:14;99644.09;;;27.41;49.34
81931;BME280;71395;43.488;1.472;2023-07-28T00:07:40;99648.41;;;27.42;49.69
81931;BME280;71395;43.488;1.472;2023-07-28T00:10:05;99653.50;;;27.37;49.51
81931;BME280;71395;43.488;1.472;2023-07-28T00:12:31;99649.59;;;27.41;49.35
81931;BME280;71395;43.488;1.472;2023-07-28T00:14:56;99652.34;;;27.41;49.53
81931;BME280;71395;43.488;1.472;2023-07-28T00:17:22;99648.81;;;27.41;49.21
81931;BME280;71395;43.488;1.472;2023-07-28T00:19:47;99649.59;;;27.41;49.41
81931;BME280;71395;43.488;1.472;2023-07-28T00:22:12;99641.69;;;27.36;49.48
81931;BME280;71395;43.488;1.472;2023-07-28T00:24:38;99660.63;;;27.41;49.50
81931;BME280;71395;43.488;1.472;2023-07-28T00:27:04;99662.56;;;27.41;49.27
81931;BME280;71395;43.488;1.472;2023-07-28T00:29:29;99663.72;;;27.40;49.18
81931;BME280;71395;43.488;1.472;2023-07-28T00:31:55;99660.97;;;27.40;49.11
81931;BME280;71395;43.488;1.472;2023-07-28T00:34:20;99652.25;;;27.30;49.45
81931;BME280;71395;43.488;1.472;2023-07-28T00:36:46;99663.66;;;27.33;49.55
81931;BME280;71395;43.488;1.472;2023-07-28T00:39:11;99662.88;;;27.32;49.17
81931;BME280;71395;43.488;1.472;2023-07-28T00:41:36;99676.69;;;27.39;49.25
81931;BME280;71395;43.488;1.472;2023-07-28T00:44:02;99691.25;;;27.40;49.51
81931;BME280;71395;43.488;1.472;2023-07-28T00:46:27;99688.50;;;27.40;49.25
81931;BME280;71395;43.488;1.472;2023-07-28T00:48:53;99679.78;;;27.30;49.62
81931;BME280;71395;43.488;1.472;2023-07-28T00:51:18;99680.63;;;27.38;49.07
81931;BME280;71395;43.488;1.472;2023-07-28T00:53:44;99668.78;;;27.30;49.07
81931;BME280;71395;43.488;1.472;2023-07-28T00:56:11;99686.94;;;27.39;48.95
81931;BME280;71395;43.488;1.472;2023-07-28T00:58:36;99690.84;;;27.38;49.17
81931;BME280;71395;43.488;1.472;2023-07-28T01:01:02;99677.84;;;27.35;49.03
81931;BME280;71395;43.488;1.472;2023-07-28T01:03:27;99663.66;;;27.33;49.29
81931;BME280;71395;43.488;1.472;2023-07-28T01:08:49;99655.84;;;27.38;48.88
81931;BME280;71395;43.488;1.472;2023-07-28T01:11:17;99650.75;;;27.37;49.56
81931;BME280;71395;43.488;1.472;2023-07-28T01:13:42;99644.00;;;27.34;49.04
81931;BME280;71395;43.488;1.472;2023-07-28T01:16:08;99639.28;;;27.31;48.79
81931;BME280;71395;43.488;1.472;2023-07-28T01:18:34;99653.06;;;27.35;49.03
81931;BME280;71395;43.488;1.472;2023-07-28T01:21:02;99650.75;;;27.37;48.85
81931;BME280;71395;43.488;1.472;2023-07-28T01:23:47;99617.97;;;27.21;49.48
81931;BME280;71395;43.488;1.472;2023-07-28T01:26:16;99651.91;;;27.36;49.21
81931;BME280;71395;43.488;1.472;2023-07-28T01:28:43;99649.56;;;27.38;49.23
81931;BME280;71395;43.488;1.472;2023-07-28T01:31:08;99631.28;;;27.19;48.97
81931;BME280;71395;43.488;1.472;2023-07-28T01:33:35;99652.31;;;27.38;49.10
81931;BME280;71395;43.488;1.472;2023-07-28T01:36:01;99645.94;;;27.26;49.26
81931;BME280;71395;43.488;1.472;2023-07-28T01:38:27;99663.66;;;27.33;48.95
81931;BME280;71395;43.488;1.472;2023-07-28T01:40:53;99659.00;;;27.37;49.36
81931;BME280;71395;43.488;1.472;2023-07-28T01:43:19;99652.28;;;27.34;49.17
81931;BME280;71395;43.488;1.472;2023-07-28T01:45:44;99657.75;;;27.30;48.96
81931;BME280;71395;43.488;1.472;2023-07-28T01:48:10;99657.41;;;27.36;49.28
81931;BME280;71395;43.488;1.472;2023-07-28T01:50:36;99623.81;;;27.16;48.78
81931;BME280;71395;43.488;1.472;2023-07-28T01:53:01;99636.50;;;27.27;48.99
81931;BME280;71395;43.488;1.472;2023-07-28T01:55:27;99638.94;;;27.36;49.36
81931;BME280;71395;43.488;1.472;2023-07-28T01:57:58;99636.97;;;27.37;49.35
81931;BME280;71395;43.488;1.472;2023-07-28T02:00:25;99629.88;;;27.36;49.28
81931;BME280;71395;43.488;1.472;2023-07-28T02:02:51;99633.44;;;27.36;48.60
81931;BME280;71395;43.488;1.472;2023-07-28T02:05:17;99638.16;;;27.36;49.09
81931;BME280;71395;43.488;1.472;2023-07-28T02:07:42;99635.41;;;27.36;49.14
81931;BME280;71395;43.488;1.472;2023-07-28T02:10:08;99628.28;;;27.35;48.59
81931;BME280;71395;43.488;1.472;2023-07-28T02:12:35;99620.38;;;27.29;49.11
81931;BME280;71395;43.488;1.472;2023-07-28T02:15:01;99631.03;;;27.35;49.30
81931;BME280;71395;43.488;1.472;2023-07-28T02:17:26;99628.28;;;27.35;49.35
81931;BME280;71395;43.488;1.472;2023-07-28T02:19:51;99608.94;;;27.24;48.75
81931;BME280;71395;43.488;1.472;2023-07-28T02:22:17;99612.91;;;27.26;48.90
81931;BME280;71395;43.488;1.472;2023-07-28T02:24:42;99626.66;;;27.30;48.94
81931;BME280;71395;43.488;1.472;2023-07-28T02:27:08;99622.72;;;27.27;48.67
81931;BME280;71395;43.488;1.472;2023-07-28T02:29:33;99626.72;;;27.34;48.73
81931;BME280;71395;43.488;1.472;2023-07-28T02:31:58;99615.66;;;27.26;49.02
81931;BME280;71395;43.488;1.472;2023-07-28T02:34:24;99604.56;;;27.19;48.76
81931;BME280;71395;43.488;1.472;2023-07-28T02:36:49;99619.63;;;27.33;48.82
81931;BME280;71395;43.488;1.472;2023-07-28T02:39:15;99615.69;;;27.34;48.54
81931;BME280;71395;43.488;1.472;2023-07-28T02:41:40;99619.63;;;27.33;48.93
81931;BME280;71395;43.488;1.472;2023-07-28T02:44:06;99593.53;;;27.19;48.50
81931;BME280;71395;43.488;1.472;2023-07-28T02:46:31;99597.13;;;27.23;48.81
81931;BME280;71395;43.488;1.472;2023-07-28T02:48:56;99597.56;;;27.25;49.16
81931;BME280;71395;43.488;1.472;2023-07-28T02:51:22;99608.19;;;27.27;48.72
81931;BME280;71395;43.488;1.472;2023-07-28T02:53:47;99603.03;;;27.22;48.91
81931;BME280;71395;43.488;1.472;2023-07-28T02:56:13;99602.25;;;27.25;48.88
81931;BME280;71395;43.488;1.472;2023-07-28T02:58:38;99607.78;;;27.28;49.09
81931;BME280;71395;43.488;1.472;2023-07-28T03:01:03;99598.69;;;27.24;48.88
81931;BME280;71395;43.488;1.472;2023-07-28T03:03:29;99607.38;;;27.26;48.47
81931;BME280;71395;43.488;1.472;2023-07-28T03:05:55;99612.53;;;27.31;48.31
81931;BME280;71395;43.488;1.472;2023-07-28T03:08:20;99608.22;;;27.30;48.90
81931;BME280;71395;43.488;1.472;2023-07-28T03:10:46;99610.16;;;27.30;48.47
81931;BME280;71395;43.488;1.472;2023-07-28T03:13:11;99590.78;;;27.19;48.17
81931;BME280;71395;43.488;1.472;2023-07-28T03:15:37;99598.34;;;27.29;48.70
81931;BME280;71395;43.488;1.472;2023-07-28T03:18:02;99590.44;;;27.24;48.29
81931;BME280;71395;43.488;1.472;2023-07-28T03:20:27;99567.19;;;27.18;48.70
81931;BME280;71395;43.488;1.472;2023-07-28T03:22:53;99590.88;;;27.30;48.45
81931;BME280;71395;43.488;1.472;2023-07-28T03:25:19;99599.13;;;27.30;49.02
81931;BME280;71395;43.488;1.472;2023-07-28T03:27:45;99594.81;;;27.29;48.88
81931;BME280;71395;43.488;1.472;2023-07-28T03:30:10;99585.75;;;27.28;49.04
81931;BME280;71395;43.488;1.472;2023-07-28T03:32:36;99570.03;;;27.29;48.26
81931;BME280;71395;43.488;1.472;2023-07-28T03:35:02;99573.19;;;27.27;48.60
81931;BME280;71395;43.488;1.472;2023-07-28T03:37:31;99574.75;;;27.28;48.79
81931;BME280;71395;43.488;1.472;2023-07-28T03:39:56;99580.25;;;27.28;48.66
81931;BME280;71395;43.488;1.472;2023-07-28T03:42:21;99570.00;;;27.22;48.44
81931;BME280;71395;43.488;1.472;2023-07-28T03:44:47;99564.06;;;27.16;48.71
81931;BME280;71395;43.488;1.472;2023-07-28T03:47:12;99573.94;;;27.24;48.75
81931;BME280;71395;43.488;1.472;2023-07-28T03:49:37;99577.09;;;27.26;48.76
81931;BME280;71395;43.488;1.472;2023-07-28T03:52:03;99579.47;;;27.28;48.37
81931;BME280;71395;43.488;1.472;2023-07-28T03:54:28;99593.63;;;27.26;48.32
81931;BME280;71395;43.488;1.472;2023-07-28T03:56:54;99599.13;;;27.26;48.80
81931;BME280;71395;43.488;1.472;2023-07-28T03:59:19;99581.31;;;27.13;48.61
81931;BME280;71395;43.488;1.472;2023-07-28T04:01:44;99600.25;;;27.22;48.93
81931;BME280;71395;43.488;1.472;2023-07-28T04:04:10;99603.84;;;27.26;48.62
81931;BME280;71395;43.488;1.472;2023-07-28T04:06:43;99591.22;;;27.21;48.47
81931;BME280;71395;43.488;1.472;2023-07-28T04:09:09;99573.44;;;27.12;48.06
81931;BME280;71395;43.488;1.472;2023-07-28T04:11:35;99596.38;;;27.26;48.76
81931;BME280;71395;43.488;1.472;2023-07-28T04:14:00;99583.31;;;27.16;48.52
81931;BME280;71395;43.488;1.472;2023-07-28T04:16:26;99602.25;;;27.25;48.12
81931;BME280;71395;43.488;1.472;2023-07-28T04:18:51;99598.69;;;27.24;48.36
81931;BME280;71395;43.488;1.472;2023-07-28T04:21:16;99594.75;;;27.22;48.72
81931;BME280;71395;43.488;1.472;2023-07-28T04:23:42;99595.16;;;27.24;48.04
81931;BME280;71395;43.488;1.472;2023-07-28T04:26:08;99598.69;;;27.24;48.55
81931;BME280;71395;43.488;1.472;2023-07-28T04:28:34;99598.69;;;27.24;48.32
81931;BME280;71395;43.488;1.472;2023-07-28T04:30:59;99578.56;;;27.13;48.69
81931;BME280;71395;43.488;1.472;2023-07-28T04:33:25;99578.59;;;27.17;48.44
81931;BME280;71395;43.488;1.472;2023-07-28T04:35:50;99587.28;;;27.22;48.46
81931;BME280;71395;43.488;1.472;2023-07-28T04:38:15;99568.69;;;27.09;48.06
81931;BME280;71395;43.488;1.472;2023-07-28T04:40:42;99595.94;;;27.24;48.32
81931;BME280;71395;43.488;1.472;2023-07-28T04:43:07;99584.88;;;27.17;48.32
81931;BME280;71395;43.488;1.472;2023-07-28T04:45:33;99588.47;;;27.21;48.64
81931;BME280;71395;43.488;1.472;2023-07-28T04:47:58;99593.53;;;27.19;48.07
81931;BME280;71395;43.488;1.472;2023-07-28T04:50:24;99603.81;;;27.22;48.58
81931;BME280;71395;43.488;1.472;2023-07-28T04:52:49;99607.28;;;27.16;48.40
81931;BME280;71395;43.488;1.472;2023-07-28T04:55:14;99615.91;;;27.14;48.25
81931;BME280;71395;43.488;1.472;2023-07-28T04:57:40;99617.56;;;27.22;48.65
81931;BME280;71395;43.488;1.472;2023-07-28T05:00:06;99601.41;;;27.17;48.37
81931;BME280;71395;43.488;1.472;2023-07-28T05:02:31;99596.72;;;27.21;48.24
81931;BME280;71395;43.488;1.472;2023-07-28T05:04:56;99595.16;;;27.20;48.82
81931;BME280;71395;43.488;1.472;2023-07-28T05:07:22;99590.44;;;27.21;48.24
81931;BME280;71395;43.488;1.472;2023-07-28T05:09:47;99575.41;;;27.15;48.70
81931;BME280;71395;43.488;1.472;2023-07-28T05:12:12;99589.66;;;27.20;48.41
81931;BME280;71395;43.488;1.472;2023-07-28T05:14:38;99597.06;;;27.16;48.58
81931;BME280;71395;43.488;1.472;2023-07-28T05:17:04;99611.66;;;27.20;48.59
81931;BME280;71395;43.488;1.472;2023-07-28T05:19:29;99602.16;;;27.14;47.92
81931;BME280;71395;43.488;1.472;2023-07-28T05:21:54;99619.09;;;27.20;48.21
81931;BME280;71395;43.488;1.472;2023-07-28T05:24:20;99621.06;;;27.19;48.22
81931;BME280;71395;43.488;1.472;2023-07-28T05:26:45;99620.28;;;27.19;48.49
81931;BME280;71395;43.488;1.472;2023-07-28T05:29:10;99600.16;;;27.11;48.50
81931;BME280;71395;43.488;1.472;2023-07-28T05:31:36;99603.75;;;27.15;48.74
81931;BME280;71395;43.488;1.472;2023-07-28T05:34:01;99600.97;;;27.12;48.34
81931;BME280;71395;43.488;1.472;2023-07-28T05:36:27;99607.66;;;27.14;48.33
81931;BME280;71395;43.488;1.472;2023-07-28T05:38:53;99621.06;;;27.19;48.16
81931;BME280;71395;43.488;1.472;2023-07-28T05:41:21;99621.06;;;27.19;47.92
81931;BME280;71395;43.488;1.472;2023-07-28T05:43:46;99618.66;;;27.14;48.03
81931;BME280;71395;43.488;1.472;2023-07-28T05:46:12;99629.31;;;27.19;48.59
81931;BME280;71395;43.488;1.472;2023-07-28T05:48:37;99609.19;;;27.08;48.32
81931;BME280;71395;43.488;1.472;2023-07-28T05:51:03;99624.59;;;27.20;47.82
81931;BME280;71395;43.488;1.472;2023-07-28T05:53:28;99618.31;;;27.19;48.08
81931;BME280;71395;43.488;1.472;2023-07-28T05:55:53;99622.66;;;27.20;48.48
81931;BME280;71395;43.488;1.472;2023-07-28T05:58:20;99623.41;;;27.17;48.39
81931;BME280;71395;43.488;1.472;2023-07-28T06:00:45;99626.56;;;27.19;47.92
81931;BME280;71395;43.488;1.472;2023-07-28T06:03:11;99614.69;;;27.08;48.08
81931;BME280;71395;43.488;1.472;2023-07-28T06:05:40;99624.59;;;27.16;47.97
81931;BME280;71395;43.488;1.472;2023-07-28T06:08:06;99625.00;;;27.18;47.98
81931;BME280;71395;43.488;1.472;2023-07-28T06:10:31;99627.41;;;27.23;48.21
81931;BME280;71395;43.488;1.472;2023-07-28T06:12:57;99631.34;;;27.22;47.99
81931;BME280;71395;43.488;1.472;2023-07-28T06:15:23;99636.44;;;27.24;48.41
81931;BME280;71395;43.488;1.472;2023-07-28T06:17:48;99640.00;;;27.24;48.50
81931;BME280;71395;43.488;1.472;2023-07-28T06:20:14;99630.50;;;27.18;48.29
81931;BME280;71395;43.488;1.472;2023-07-28T06:22:39;99647.09;;;27.25;48.16
81931;BME280;71395;43.488;1.472;2023-07-28T06:25:05;99653.41;;;27.26;47.66
81931;BME280;71395;43.488;1.472;2023-07-28T06:27:30;99634.44;;;27.17;48.29
81931;BME280;71395;43.488;1.472;2023-07-28T06:29:56;99634.44;;;27.17;47.85
81931;BME280;71395;43.488;1.472;2023-07-28T06:32:21;99647.81;;;27.19;48.38
81931;BME280;71395;43.488;1.472;2023-07-28T06:34:49;99651.00;;;27.21;48.13
81931;BME280;71395;43.488;1.472;2023-07-28T06:37:14;99641.84;;;27.13;48.03
81931;BME280;71395;43.488;1.472;2023-07-28T06:39:40;99621.66;;;27.02;48.04
81931;BME280;71395;43.488;1.472;2023-07-28T06:42:06;99650.63;;;27.26;48.01
81931;BME280;71395;43.488;1.472;2023-07-28T06:44:31;99658.50;;;27.27;48.64
81931;BME280;71395;43.488;1.472;2023-07-28T06:46:57;99662.44;;;27.26;48.33
81931;BME280;71395;43.488;1.472;2023-07-28T06:49:23;99651.78;;;27.21;48.83
81931;BME280;71395;43.488;1.472;2023-07-28T06:51:48;99669.19;;;27.33;48.07
81931;BME280;71395;43.488;1.472;2023-07-28T06:54:14;99662.44;;;27.26;48.26
81931;BME280;71395;43.488;1.472;2023-07-28T06:56:40;99671.94;;;27.33;48.57
81931;BME280;71395;43.488;1.472;2023-07-28T06:59:07;99668.78;;;27.34;48.64
81931;BME280;71395;43.488;1.472;2023-07-28T07:01:33;99660.03;;;27.25;48.53
81931;BME280;71395;43.488;1.472;2023-07-28T07:03:58;99639.94;;;27.17;49.05
81931;BME280;71395;43.488;1.472;2023-07-28T07:06:24;99647.09;;;27.25;49.38
81931;BME280;71395;43.488;1.472;2023-07-28T07:08:50;99650.25;;;27.27;49.08
81931;BME280;71395;43.488;1.472;2023-07-28T07:11:16;99649.06;;;27.28;49.60
81931;BME280;71395;43.488;1.472;2023-07-28T07:13:41;99653.34;;;27.22;49.67
81931;BME280;71395;43.488;1.472;2023-07-28T07:16:14;99652.53;;;27.18;50.17
81931;BME280;71395;43.488;1.472;2023-07-28T07:18:40;99647.69;;;27.08;50.32
81931;BME280;71395;43.488;1.472;2023-07-28T07:21:06;99658.78;;;27.15;50.67
81931;BME280;71395;43.488;1.472;2023-07-28T07:23:31;99659.53;;;27.12;50.36
81931;BME280;71395;43.488;1.472;2023-07-28T07:25:57;99663.81;;;27.10;50.45
81931;BME280;71395;43.488;1.472;2023-07-28T07:28:22;99646.78;;;26.97;50.85
81931;BME280;71395;43.488;1.472;2023-07-28T07:30:47;99671.28;;;27.09;51.21
81931;BME280;71395;43.488;1.472;2023-07-28T07:33:13;99669.63;;;27.04;51.18
81931;BME280;71395;43.488;1.472;2023-07-28T07:35:39;99665.69;;;27.02;51.37
81931;BME280;71395;43.488;1.472;2023-07-28T07:38:04;99664.91;;;27.05;51.37
81931;BME280;71395;43.488;1.472;2023-07-28T07:40:34;99677.22;;;27.11;51.40
81931;BME280;71395;43.488;1.472;2023-07-28T07:43:00;99664.91;;;27.05;51.44
81931;BME280;71395;43.488;1.472;2023-07-28T07:45:25;99671.59;;;27.04;51.36
81931;BME280;71395;43.488;1.472;2023-07-28T07:47:51;99674.03;;;27.09;51.06
81931;BME280;71395;43.488;1.472;2023-07-28T07:50:16;99661.78;;;27.03;51.46
81931;BME280;71395;43.488;1.472;2023-07-28T07:52:42;99682.75;;;27.15;51.38
81931;BME280;71395;43.488;1.472;2023-07-28T07:55:09;99679.97;;;27.11;51.52
81931;BME280;71395;43.488;1.472;2023-07-28T07:57:36;99686.31;;;27.15;51.94
81931;BME280;71395;43.488;1.472;2023-07-28T08:00:02;99683.91;;;27.14;51.73
81931;BME280;71395;43.488;1.472;2023-07-28T08:02:28;99696.56;;;27.18;51.41
81931;BME280;71395;43.488;1.472;2023-07-28T08:04:53;99681.97;;;27.14;51.49
81931;BME280;71395;43.488;1.472;2023-07-28T08:07:19;99675.72;;;27.17;51.27
81931;BME280;71395;43.488;1.472;2023-07-28T08:09:45;99677.28;;;27.18;51.51
81931;BME280;71395;43.488;1.472;2023-07-28T08:12:16;99669.03;;;27.18;52.02
81931;BME280;71395;43.488;1.472;2023-07-28T08:14:42;99677.72;;;27.20;51.48
81931;BME280;71395;43.488;1.472;2023-07-28T08:17:08;99665.88;;;27.20;52.13
81931;BME280;71395;43.488;1.472;2023-07-28T08:19:34;99652.88;;;27.13;51.57
81931;BME280;71395;43.488;1.472;2023-07-28T08:22:01;99663.56;;;27.22;51.58
81931;BME280;71395;43.488;1.472;2023-07-28T08:24:28;99673.03;;;27.24;51.58
81931;BME280;71395;43.488;1.472;2023-07-28T08:26:54;99670.59;;;27.19;51.60
81931;BME280;71395;43.488;1.472;2023-07-28T08:29:19;99674.97;;;27.24;51.44
81931;BME280;71395;43.488;1.472;2023-07-28T08:31:45;99671.44;;;27.23;51.34
81931;BME280;71395;43.488;1.472;2023-07-28T08:34:10;99668.19;;;27.14;51.42
81931;BME280;71395;43.488;1.472;2023-07-28T08:36:36;99675.31;;;27.15;51.28
81931;BME280;71395;43.488;1.472;2023-07-28T08:39:01;99667.78;;;27.12;51.93
81931;BME280;71395;43.488;1.472;2023-07-28T08:41:27;99668.63;;;27.16;51.87
81931;BME280;71395;43.488;1.472;2023-07-28T08:43:53;99665.03;;;27.12;51.90
81931;BME280;71395;43.488;1.472;2023-07-28T08:46:20;99669.00;;;27.15;51.40
81931;BME280;71395;43.488;1.472;2023-07-28T08:48:45;99663.09;;;27.13;51.41
81931;BME280;71395;43.488;1.472;2023-07-28T08:51:12;99667.38;;;27.10;51.54
81931;BME280;71395;43.488;1.472;2023-07-28T08:53:38;99649.56;;;27.00;51.87
81931;BME280;71395;43.488;1.472;2023-07-28T08:56:03;99662.59;;;27.07;51.69
81931;BME280;71395;43.488;1.472;2023-07-28T08:58:29;99663.00;;;27.05;51.44
81931;BME280;71395;43.488;1.472;2023-07-28T09:00:55;99659.41;;;27.05;51.74
81931;BME280;71395;43.488;1.472;2023-07-28T09:03:21;99650.69;;;26.96;51.59
81931;BME280;71395;43.488;1.472;2023-07-28T09:05:48;99665.69;;;27.02;52.09
81931;BME280;71395;43.488;1.472;2023-07-28T09:08:17;99666.88;;;27.01;52.01
81931;BME280;71395;43.488;1.472;2023-07-28T09:10:44;99677.44;;;26.99;52.17
81931;BME280;71395;43.488;1.472;2023-07-28T09:13:11;99671.09;;;26.95;52.05
81931;BME280;71395;43.488;1.472;2023-07-28T09:15:38;99673.06;;;26.94;52.12
81931;BME280;71395;43.488;1.472;2023-07-28T09:18:03;99658.41;;;26.83;51.80
81931;BME280;71395;43.488;1.472;2023-07-28T09:20:36;99680.16;;;26.95;51.62
81931;BME280;71395;43.488;1.472;2023-07-28T09:23:02;99674.63;;;26.92;51.21
81931;BME280;71395;43.488;1.472;2023-07-28T09:25:29;99674.16;;;26.86;51.21
81931;BME280;71395;43.488;1.472;2023-07-28T09:27:58;99676.13;;;26.86;51.59
81931;BME280;71395;43.488;1.472;2023-07-28T09:30:24;99674.44;;;26.77;51.61
81931;BME280;71395;43.488;1.472;2023-07-28T09:32:52;99678.44;;;26.84;51.23
81931;BME280;71395;43.488;1.472;2023-07-28T09:35:18;99682.38;;;26.83;51.37
81931;BME280;71395;43.488;1.472;2023-07-28T09:37:46;99683.53;;;26.82;51.06
81931;BME280;71395;43.488;1.472;2023-07-28T09:40:21;99635.19;;;26.47;50.94
81931;BME280;71395;43.488;1.472;2023-07-28T09:42:47;99681.97;;;26.80;51.45
81931;BME280;71395;43.488;1.472;2023-07-28T09:45:17;99681.97;;;26.80;50.86
81931;BME280;71395;43.488;1.472;2023-07-28T09:47:47;99681.97;;;26.80;51.33
81931;BME280;71395;43.488;1.472;2023-07-28T09:50:17;99665.78;;;26.75;50.86
81931;BME280;71395;43.488;1.472;2023-07-28T09:52:46;99643.94;;;26.56;51.08
81931;BME280;71395;43.488;1.472;2023-07-28T09:55:13;99655.88;;;26.67;51.07
81931;BME280;71395;43.488;1.472;2023-07-28T09:57:45;99671.28;;;26.75;51.46
81931;BME280;71395;43.488;1.472;2023-07-28T10:00:13;99664.16;;;26.71;51.06
81931;BME280;71395;43.488;1.472;2023-07-28T10:02:40;99676.03;;;26.78;51.27
81931;BME280;71395;43.488;1.472;2023-07-28T10:05:06;99679.94;;;26.77;50.91
81931;BME280;71395;43.488;1.472;2023-07-28T10:07:35;99662.53;;;26.66;51.27
81931;BME280;71395;43.488;1.472;2023-07-28T10:10:03;99684.66;;;26.77;51.30
81931;BME280;71395;43.488;1.472;2023-07-28T10:12:42;99667.72;;;26.71;51.18
81931;BME280;71395;43.488;1.472;2023-07-28T10:15:18;99655.03;;;26.63;51.45
81931;BME280;71395;43.488;1.472;2023-07-28T10:17:53;99672.44;;;26.74;51.02
81931;BME280;71395;43.488;1.472;2023-07-28T10:20:33;99664.63;;;26.76;50.87
81931;BME280;71395;43.488;1.472;2023-07-28T10:23:13;99632.94;;;26.56;51.33
81931;BME280;71395;43.488;1.472;2023-07-28T10:25:40;99662.94;;;26.68;51.28
81931;BME280;71395;43.488;1.472;2023-07-28T10:28:08;99674.78;;;26.72;51.58
81931;BME280;71395;43.488;1.472;2023-07-28T10:30:54;99670.03;;;26.69;50.84
81931;BME280;71395;43.488;1.472;2023-07-28T10:33:31;99640.75;;;26.54;51.23
81931;BME280;71395;43.488;1.472;2023-07-28T10:36:14;99659.41;;;26.68;51.28
81931;BME280;71395;43.488;1.472;2023-07-28T10:38:41;99649.94;;;26.65;51.42
81931;BME280;71395;43.488;1.472;2023-07-28T10:41:13;99656.66;;;26.68;51.33
81931;BME280;71395;43.488;1.472;2023-07-28T10:43:40;99646.44;;;26.68;51.60
81931;BME280;71395;43.488;1.472;2023-07-28T10:46:11;99638.47;;;26.60;50.50
81931;BME280;71395;43.488;1.472;2023-07-28T10:48:41;99645.31;;;26.73;50.84
81931;BME280;71395;43.488;1.472;2023-07-28T10:51:07;99611.75;;;26.57;51.13
81931;BME280;71395;43.488;1.472;2023-07-28T10:53:32;99612.25;;;26.66;50.63
81931;BME280;71395;43.488;1.472;2023-07-28T10:56:00;99625.31;;;26.76;51.13
81931;BME280;71395;43.488;1.472;2023-07-28T10:58:25;99625.28;;;26.72;51.23
81931;BME280;71395;43.488;1.472;2023-07-28T11:00:51;99606.66;;;26.59;50.84
81931;BME280;71395;43.488;1.472;2023-07-28T11:03:17;99624.94;;;26.77;50.26
81931;BME280;71395;43.488;1.472;2023-07-28T11:05:43;99626.13;;;26.80;50.94
81931;BME280;71395;43.488;1.472;2023-07-28T11:08:08;99616.69;;;26.77;50.90
81931;BME280;71395;43.488;1.472;2023-07-28T11:10:34;99619.09;;;26.83;51.33
81931;BME280;71395;43.488;1.472;2023-07-28T11:13:05;99617.94;;;26.84;50.66
81931;BME280;71395;43.488;1.472;2023-07-28T11:15:31;99622.25;;;26.85;51.16
81931;BME280;71395;43.488;1.472;2023-07-28T11:17:58;99606.09;;;26.79;50.87
81931;BME280;71395;43.488;1.472;2023-07-28T11:20:26;99618.38;;;26.86;50.62
81931;BME280;71395;43.488;1.472;2023-07-28T11:22:52;99618.75;;;26.88;51.15
81931;BME280;71395;43.488;1.472;2023-07-28T11:25:18;99611.25;;;26.85;51.05
81931;BME280;71395;43.488;1.472;2023-07-28T11:27:44;99597.47;;;26.81;51.00
81931;BME280;71395;43.488;1.472;2023-07-28T11:30:11;99606.19;;;26.90;51.45
81931;BME280;71395;43.488;1.472;2023-07-28T11:32:37;99579.03;;;26.82;51.02
81931;BME280;71395;43.488;1.472;2023-07-28T11:35:05;99585.00;;;26.91;50.70
81931;BME280;71395;43.488;1.472;2023-07-28T11:37:32;99604.28;;;26.94;51.19
81931;BME280;71395;43.488;1.472;2023-07-28T11:40:02;99599.91;;;26.90;50.69
81931;BME280;71395;43.488;1.472;2023-07-28T11:42:33;99612.13;;;26.92;50.57
81931;BME280;71395;43.488;1.472;2023-07-28T11:44:59;99590.84;;;26.86;51.29
81931;BME280;71395;43.488;1.472;2023-07-28T11:47:25;99594.50;;;26.97;51.14
81931;BME280;71395;43.488;1.472;2023-07-28T11:49:50;99575.94;;;26.87;50.86
81931;BME280;71395;43.488;1.472;2023-07-28T11:52:16;99587.78;;;26.94;51.33
81931;BME280;71395;43.488;1.472;2023-07-28T11:54:44;99580.66;;;26.90;50.78
81931;BME280;71395;43.488;1.472;2023-07-28T11:57:12;99594.88;;;26.95;51.04
81931;BME280;71395;43.488;1.472;2023-07-28T11:59:38;99589.75;;;26.94;51.25
81931;BME280;71395;43.488;1.472;2023-07-28T12:02:04;99598.81;;;26.98;50.85
81931;BME280;71395;43.488;1.472;2023-07-28T12:04:32;99594.50;;;26.97;51.03
81931;BME280;71395;43.488;1.472;2023-07-28T12:12:16;99601.97;;;27.00;51.53
81931;BME280;71395;43.488;1.472;2023-07-28T12:14:41;99603.59;;;27.04;51.05
81931;BME280;71395;43.488;1.472;2023-07-28T12:17:14;99607.56;;;27.07;51.27
81931;BME280;71395;43.488;1.472;2023-07-28T12:19:57;99590.50;;;26.91;50.82
81931;BME280;71395;43.488;1.472;2023-07-28T12:22:23;99608.75;;;27.06;51.25
81931;BME280;71395;43.488;1.472;2023-07-28T12:24:48;99604.81;;;27.07;50.90
81931;BME280;71395;43.488;1.472;2023-07-28T12:27:14;99587.16;;;27.08;51.15
81931;BME280;71395;43.488;1.472;2023-07-28T12:29:41;99578.03;;;27.04;51.03
81931;BME280;71395;43.488;1.472;2023-07-28T12:32:06;99538.28;;;26.98;50.88
81931;BME280;71395;43.488;1.472;2023-07-28T12:34:33;99524.88;;;26.93;50.67
81931;BME280;71395;43.488;1.472;2023-07-28T12:36:58;99580.91;;;27.11;50.80
81931;BME280;71395;43.488;1.472;2023-07-28T12:39:24;99614.72;;;27.12;50.69
81931;BME280;71395;43.488;1.472;2023-07-28T12:41:49;99614.34;;;27.13;50.54
81931;BME280;71395;43.488;1.472;2023-07-28T12:44:18;99580.06;;;27.07;50.67
81931;BME280;71395;43.488;1.472;2023-07-28T12:46:44;99575.41;;;27.11;50.57
81931;BME280;71395;43.488;1.472;2023-07-28T12:49:09;99567.97;;;27.15;50.64
81931;BME280;71395;43.488;1.472;2023-07-28T12:51:35;99548.56;;;27.04;50.95
81931;BME280;71395;43.488;1.472;2023-07-28T12:54:00;99546.34;;;27.17;50.66
81931;BME280;71395;43.488;1.472;2023-07-28T12:56:25;99521.03;;;27.01;50.92
81931;BME280;71395;43.488;1.472;2023-07-28T12:58:51;99553.78;;;27.13;50.60
81931;BME280;71395;43.488;1.472;2023-07-28T13:01:16;99556.53;;;27.13;50.90
81931;BME280;71395;43.488;1.472;2023-07-28T13:03:42;99548.22;;;27.06;51.00